Time;durP1;ratioP1;P1;durP2;ratioP2;P2;SDS_P1;SDS_P2;PMS_P1;PMS_P2;Temp;Humidity;BMP_temperature;BMP_pressure;BME280_temperature;BME280_humidity;BME280_pressure;Samples;Min_cycle;Max_cycle;Signal;HPM_P1;HPM_P2
2024/01/02 00:00:21;;;;;;;10.57;2.13;;;;;;;;;;5045183;28;20102;-86
2024/01/02 00:02:48;;;;;;;8.38;1.67;;;;;;;;;;5042091;28;20049;-86
2024/01/02 00:05:15;;;;;;;9.15;2.45;;;;;;;;;;5058196;28;20418;-87
2024/01/02 00:07:43;;;;;;;14.15;2.67;;;;;;;;;;5046041;28;20413;-86
2024/01/02 00:10:10;;;;;;;8.68;1.98;;;;;;;;;;5038140;28;20482;-86
2024/01/02 00:12:38;;;;;;;15.77;2.20;;;;;;;;;;5041462;28;20053;-85
2024/01/02 00:15:06;;;;;;;8.75;2.03;;;;;;;;;;5041531;28;20552;-86
2024/01/02 00:17:33;;;;;;;8.27;1.75;;;;;;;;;;5043902;28;20053;-87
2024/01/02 00:20:01;;;;;;;10.43;1.95;;;;;;;;;;5046733;28;20057;-87
2024/01/02 00:22:28;;;;;;;10.10;2.08;;;;;;;;;;5043631;28;20107;-86
2024/01/02 00:24:55;;;;;;;9.95;1.83;;;;;;;;;;5057916;28;20101;-86
2024/01/02 00:27:22;;;;;;;10.38;1.77;;;;;;;;;;5042908;28;20413;-87
2024/01/02 00:29:50;;;;;;;14.35;2.05;;;;;;;;;;5045156;28;20053;-87
2024/01/02 00:32:17;;;;;;;6.10;1.50;;;;;;;;;;5044745;28;20102;-86
2024/01/02 00:34:44;;;;;;;10.88;2.35;;;;;;;;;;5042456;28;20057;-87
2024/01/02 00:37:11;;;;;;;5.72;1.67;;;;;;;;;;5042190;28;20077;-86
2024/01/02 00:39:38;;;;;;;9.00;1.98;;;;;;;;;;5042119;28;20076;-86
2024/01/02 00:42:06;;;;;;;6.40;1.58;;;;;;;;;;5042352;28;20494;-86
2024/01/02 00:44:37;;;;;;;8.18;1.83;;;;;;;;;;5049147;28;20503;-87
2024/01/02 00:47:04;;;;;;;7.88;1.60;;;;;;;;;;5042269;28;20064;-86
2024/01/02 00:49:31;;;;;;;11.70;2.20;;;;;;;;;;5059128;28;20045;-87
2024/01/02 00:51:59;;;;;;;9.43;1.70;;;;;;;;;;5044119;28;20494;-87
2024/01/02 00:54:26;;;;;;;11.68;1.92;;;;;;;;;;5036243;28;20042;-86
2024/01/02 00:56:53;;;;;;;11.13;2.50;;;;;;;;;;5044711;28;20045;-87
2024/01/02 00:59:20;;;;;;;13.05;1.85;;;;;;;;;;5044708;28;20440;-86
2024/01/02 01:01:47;;;;;;;4.65;1.75;;;;;;;;;;5057404;28;20050;-87
2024/01/02 01:04:15;;;;;;;10.00;1.58;;;;;;;;;;5050247;28;20085;-86
2024/01/02 01:06:42;;;;;;;10.40;2.25;;;;;;;;;;5040267;28;20498;-88
2024/01/02 01:09:09;;;;;;;9.55;1.60;;;;;;;;;;5057471;28;20793;-87
2024/01/02 01:11:36;;;;;;;11.05;2.45;;;;;;;;;;5059633;28;20057;-87
2024/01/02 01:14:03;;;;;;;14.57;2.38;;;;;;;;;;5044038;28;20041;-87
2024/01/02 01:16:31;;;;;;;13.70;1.88;;;;;;;;;;5042840;28;20049;-87
2024/01/02 01:18:58;;;;;;;7.55;2.10;;;;;;;;;;5056805;28;20057;-88
2024/01/02 01:21:25;;;;;;;11.27;1.70;;;;;;;;;;5048721;28;20049;-88
2024/01/02 01:23:54;;;;;;;10.05;1.77;;;;;;;;;;5057176;28;20049;-88
2024/01/02 01:26:22;;;;;;;8.35;2.20;;;;;;;;;;5057141;28;20053;-88
2024/01/02 01:28:49;;;;;;;10.73;2.20;;;;;;;;;;5040355;28;20405;-87
2024/01/02 01:31:16;;;;;;;5.88;1.58;;;;;;;;;;5024339;28;20057;-88
2024/01/02 01:33:43;;;;;;;7.53;2.22;;;;;;;;;;5046378;28;20053;-88
2024/01/02 01:36:13;;;;;;;4.97;1.50;;;;;;;;;;5045150;28;20053;-87
2024/01/02 01:38:40;;;;;;;5.00;1.63;;;;;;;;;;5041258;28;20107;-87
2024/01/02 01:41:07;;;;;;;3.70;1.38;;;;;;;;;;5057265;28;20112;-87
2024/01/02 01:43:34;;;;;;;3.47;1.50;;;;;;;;;;5056617;28;20060;-87
2024/01/02 01:46:03;;;;;;;3.72;1.27;;;;;;;;;;5040422;28;20053;-87
2024/01/02 01:48:30;;;;;;;4.53;1.30;;;;;;;;;;5041889;28;20049;-87
2024/01/02 01:50:58;;;;;;;8.45;1.55;;;;;;;;;;5044019;28;20083;-88
2024/01/02 01:53:26;;;;;;;4.00;1.10;;;;;;;;;;5042951;28;20041;-87
2024/01/02 01:55:54;;;;;;;2.72;0.90;;;;;;;;;;5040197;28;20056;-87
2024/01/02 01:58:21;;;;;;;3.80;0.95;;;;;;;;;;5040074;28;20053;-88
2024/01/02 02:00:48;;;;;;;2.20;0.90;;;;;;;;;;5028023;28;20064;-88
2024/01/02 02:03:17;;;;;;;3.75;1.08;;;;;;;;;;5028036;28;20064;-87
2024/01/02 02:05:45;;;;;;;3.90;1.45;;;;;;;;;;5044426;28;20049;-87
2024/01/02 02:08:12;;;;;;;4.07;1.35;;;;;;;;;;5043661;28;20071;-87
2024/01/02 02:10:40;;;;;;;4.13;1.10;;;;;;;;;;5041004;28;20049;-89
2024/01/02 02:13:07;;;;;;;4.53;1.10;;;;;;;;;;5056586;28;20084;-88
2024/01/02 02:15:38;;;;;;;5.55;1.30;;;;;;;;;;5058615;28;20057;-88
2024/01/02 02:18:06;;;;;;;5.93;1.30;;;;;;;;;;5043626;28;20437;-88
2024/01/02 02:20:33;;;;;;;3.22;0.95;;;;;;;;;;5043812;28;20049;-88
2024/01/02 02:23:00;;;;;;;3.65;1.00;;;;;;;;;;5043766;28;20481;-88
2024/01/02 02:25:28;;;;;;;4.10;1.48;;;;;;;;;;5027152;28;20049;-88
2024/01/02 02:27:55;;;;;;;4.05;1.08;;;;;;;;;;5047512;28;20106;-88
2024/01/02 02:30:22;;;;;;;5.70;1.40;;;;;;;;;;5031152;28;20053;-88
2024/01/02 02:32:49;;;;;;;4.35;1.00;;;;;;;;;;5047515;28;20057;-88
2024/01/02 02:35:17;;;;;;;1.90;0.88;;;;;;;;;;5047237;28;20486;-88
2024/01/02 02:37:44;;;;;;;4.35;1.13;;;;;;;;;;5043931;28;20053;-88
2024/01/02 02:40:12;;;;;;;6.93;1.45;;;;;;;;;;5060214;28;20154;-88
2024/01/02 02:42:39;;;;;;;2.72;1.00;;;;;;;;;;5054485;28;20060;-88
2024/01/02 02:45:06;;;;;;;2.80;1.15;;;;;;;;;;5026559;28;20054;-88
2024/01/02 02:47:34;;;;;;;2.97;1.13;;;;;;;;;;5035831;28;20073;-88
2024/01/02 02:50:01;;;;;;;6.60;1.52;;;;;;;;;;5053280;28;20132;-88
2024/01/02 02:52:28;;;;;;;3.55;1.02;;;;;;;;;;5045663;28;20049;-87
2024/01/02 02:54:56;;;;;;;2.53;1.17;;;;;;;;;;5060014;28;20049;-88
2024/01/02 02:57:23;;;;;;;5.55;1.27;;;;;;;;;;5068127;28;20444;-88
2024/01/02 02:59:51;;;;;;;5.05;1.17;;;;;;;;;;5032350;28;20049;-87
2024/01/02 03:02:18;;;;;;;8.10;1.20;;;;;;;;;;5047880;28;20076;-88
2024/01/02 03:04:45;;;;;;;9.10;1.35;;;;;;;;;;5035443;28;20057;-87
2024/01/02 03:07:13;;;;;;;3.33;1.40;;;;;;;;;;5059502;28;20057;-88
2024/01/02 03:09:43;;;;;;;13.05;1.60;;;;;;;;;;5062576;28;20073;-88
2024/01/02 03:12:12;;;;;;;4.50;1.13;;;;;;;;;;5046772;28;20048;-87
2024/01/02 03:14:40;;;;;;;7.25;1.48;;;;;;;;;;5043983;28;20600;-87
2024/01/02 03:17:07;;;;;;;2.33;1.55;;;;;;;;;;5059945;28;20111;-88
2024/01/02 03:19:34;;;;;;;6.30;1.65;;;;;;;;;;5061101;28;20049;-87
2024/01/02 03:22:02;;;;;;;2.95;1.10;;;;;;;;;;5046431;28;20057;-88
2024/01/02 03:24:29;;;;;;;11.73;1.30;;;;;;;;;;5038009;28;20057;-88
2024/01/02 03:26:56;;;;;;;6.47;2.45;;;;;;;;;;5041319;28;20133;-88
2024/01/02 03:29:26;;;;;;;9.15;1.60;;;;;;;;;;5043330;28;20053;-88
2024/01/02 03:31:54;;;;;;;4.97;1.02;;;;;;;;;;5046426;28;20103;-88
2024/01/02 03:34:21;;;;;;;8.88;2.05;;;;;;;;;;5045656;28;20068;-88
2024/01/02 03:36:48;;;;;;;3.78;1.30;;;;;;;;;;5059262;28;20053;-88
2024/01/02 03:39:15;;;;;;;3.50;1.23;;;;;;;;;;5059540;28;20107;-87
2024/01/02 03:41:43;;;;;;;2.90;1.08;;;;;;;;;;5062529;28;20574;-88
2024/01/02 03:44:10;;;;;;;7.20;1.52;;;;;;;;;;5032732;28;20403;-89
2024/01/02 03:46:37;;;;;;;4.70;1.30;;;;;;;;;;5041127;28;20106;-88
2024/01/02 03:49:04;;;;;;;4.63;1.50;;;;;;;;;;5042588;28;20057;-88
2024/01/02 03:51:32;;;;;;;4.25;0.90;;;;;;;;;;5060621;28;20136;-88
2024/01/02 03:53:59;;;;;;;6.88;1.17;;;;;;;;;;5045903;28;20049;-89
2024/01/02 03:56:26;;;;;;;6.75;1.70;;;;;;;;;;5045274;28;20056;-89
2024/01/02 03:58:53;;;;;;;5.30;1.40;;;;;;;;;;5059062;28;20056;-88
2024/01/02 04:01:21;;;;;;;6.97;1.40;;;;;;;;;;5058851;28;20128;-88
2024/01/02 04:03:48;;;;;;;4.65;1.52;;;;;;;;;;5047576;28;20051;-90
2024/01/02 04:06:15;;;;;;;6.82;1.60;;;;;;;;;;5040592;28;20068;-88
2024/01/02 04:08:42;;;;;;;3.83;1.67;;;;;;;;;;5056064;28;20050;-88
2024/01/02 04:11:13;;;;;;;3.83;1.23;;;;;;;;;;5035716;28;20133;-88
2024/01/02 04:13:40;;;;;;;5.68;1.77;;;;;;;;;;5042497;28;20053;-88
2024/01/02 04:16:07;;;;;;;4.38;1.40;;;;;;;;;;5058361;28;20053;-87
2024/01/02 04:18:35;;;;;;;5.80;1.20;;;;;;;;;;5052121;28;20073;-89
2024/01/02 04:21:02;;;;;;;3.70;1.05;;;;;;;;;;5045672;28;20084;-88
2024/01/02 04:23:29;;;;;;;1.98;0.95;;;;;;;;;;5043817;28;20551;-88
2024/01/02 04:25:57;;;;;;;5.60;1.20;;;;;;;;;;5058368;28;20060;-87
2024/01/02 04:28:24;;;;;;;3.67;1.13;;;;;;;;;;5058690;28;20516;-88
2024/01/02 04:30:52;;;;;;;4.57;1.33;;;;;;;;;;5036913;28;20080;-88
2024/01/02 04:33:19;;;;;;;5.57;1.10;;;;;;;;;;5037881;28;20052;-87
2024/01/02 04:35:46;;;;;;;4.32;1.05;;;;;;;;;;5033759;28;20046;-88
2024/01/02 04:38:14;;;;;;;4.38;0.82;;;;;;;;;;5058453;28;20053;-88
2024/01/02 04:40:41;;;;;;;3.15;0.98;;;;;;;;;;5061168;28;20063;-88
2024/01/02 04:43:08;;;;;;;2.78;0.60;;;;;;;;;;5044840;28;20110;-88
2024/01/02 04:45:36;;;;;;;5.15;1.05;;;;;;;;;;5042982;28;20049;-88
2024/01/02 04:48:03;;;;;;;1.40;1.10;;;;;;;;;;5057387;28;20106;-88
2024/01/02 04:50:30;;;;;;;6.57;2.75;;;;;;;;;;5059268;28;20609;-87
2024/01/02 04:52:58;;;;;;;4.78;1.27;;;;;;;;;;5045360;28;20064;-88
2024/01/02 04:55:25;;;;;;;2.08;0.60;;;;;;;;;;5043578;28;20127;-88
2024/01/02 04:57:52;;;;;;;2.75;0.52;;;;;;;;;;5057702;28;20065;-88
2024/01/02 05:00:20;;;;;;;1.65;0.57;;;;;;;;;;5057802;28;20053;-88
2024/01/02 05:02:48;;;;;;;1.05;0.52;;;;;;;;;;5060914;28;20045;-87
2024/01/02 05:05:15;;;;;;;0.80;0.50;;;;;;;;;;5044541;28;20175;-88
2024/01/02 05:07:43;;;;;;;2.53;0.60;;;;;;;;;;5041052;28;20060;-89
2024/01/02 05:10:10;;;;;;;2.22;0.50;;;;;;;;;;5041004;28;20053;-88
2024/01/02 05:12:37;;;;;;;1.10;0.30;;;;;;;;;;5043157;28;20464;-89
2024/01/02 05:15:05;;;;;;;1.20;0.20;;;;;;;;;;5044420;28;20048;-88
2024/01/02 05:17:32;;;;;;;0.85;0.38;;;;;;;;;;5042876;28;20115;-89
2024/01/02 05:19:59;;;;;;;0.98;0.52;;;;;;;;;;5060868;28;20570;-87
2024/01/02 05:22:26;;;;;;;0.52;0.50;;;;;;;;;;5057091;28;20060;-87
2024/01/02 05:24:54;;;;;;;0.63;0.35;;;;;;;;;;5040385;28;20132;-86
2024/01/02 05:27:21;;;;;;;0.70;0.30;;;;;;;;;;5040635;28;20509;-87
2024/01/02 05:29:48;;;;;;;0.88;0.20;;;;;;;;;;5044431;28;20056;-88
2024/01/02 05:32:16;;;;;;;0.52;0.47;;;;;;;;;;5044111;28;20049;-87
2024/01/02 05:34:43;;;;;;;1.10;0.30;;;;;;;;;;5040912;28;20054;-87
2024/01/02 05:37:10;;;;;;;0.60;0.32;;;;;;;;;;5056668;28;20041;-87
2024/01/02 05:39:37;;;;;;;0.50;0.40;;;;;;;;;;5048816;28;20613;-88
2024/01/02 05:42:05;;;;;;;1.25;0.47;;;;;;;;;;5056836;28;20422;-87
2024/01/02 05:44:32;;;;;;;0.38;0.30;;;;;;;;;;5058668;28;20111;-87
2024/01/02 05:46:59;;;;;;;1.38;0.38;;;;;;;;;;5044014;28;20048;-88
2024/01/02 05:49:26;;;;;;;0.80;0.30;;;;;;;;;;5042943;28;20052;-87
2024/01/02 05:51:54;;;;;;;0.20;0.20;;;;;;;;;;5053249;28;20052;-88
2024/01/02 05:54:22;;;;;;;0.68;0.20;;;;;;;;;;5043331;28;20110;-87
2024/01/02 05:56:50;;;;;;;0.45;0.45;;;;;;;;;;5053163;28;20056;-89
2024/01/02 05:59:17;;;;;;;0.35;0.20;;;;;;;;;;5028445;28;20057;-87
2024/01/02 06:01:44;;;;;;;1.83;0.30;;;;;;;;;;5046152;28;20053;-88
2024/01/02 06:04:11;;;;;;;0.20;0.20;;;;;;;;;;5033667;28;20109;-88
2024/01/02 06:06:39;;;;;;;0.30;0.20;;;;;;;;;;5043129;28;20049;-88
2024/01/02 06:09:06;;;;;;;0.10;0.10;;;;;;;;;;5060647;28;20060;-86
2024/01/02 06:11:33;;;;;;;0.80;0.30;;;;;;;;;;5062291;28;20045;-87
2024/01/02 06:14:01;;;;;;;0.22;0.22;;;;;;;;;;5042300;28;20056;-88
2024/01/02 06:16:29;;;;;;;0.20;0.20;;;;;;;;;;5045311;28;20467;-88
2024/01/02 06:18:56;;;;;;;0.20;0.20;;;;;;;;;;5047051;28;20065;-87
2024/01/02 06:21:24;;;;;;;0.13;0.13;;;;;;;;;;5046888;28;20079;-89
2024/01/02 06:23:51;;;;;;;0.20;0.20;;;;;;;;;;5060311;28;20049;-87
2024/01/02 06:26:23;;;;;;;0.52;0.28;;;;;;;;;;5060192;28;20053;-87
2024/01/02 06:28:50;;;;;;;0.57;0.10;;;;;;;;;;5047605;28;20135;-86
2024/01/02 06:31:21;;;;;;;1.40;0.30;;;;;;;;;;5039062;28;20053;-87
2024/01/02 06:33:48;;;;;;;0.20;0.20;;;;;;;;;;5039786;28;20099;-89
2024/01/02 06:36:16;;;;;;;0.10;0.10;;;;;;;;;;5047520;28;20048;-86
2024/01/02 06:38:44;;;;;;;0.10;0.10;;;;;;;;;;5042078;28;20060;-87
2024/01/02 06:41:11;;;;;;;0.20;0.20;;;;;;;;;;5060065;28;20057;-87
2024/01/02 06:43:38;;;;;;;0.20;0.20;;;;;;;;;;5062479;28;20053;-86
2024/01/02 06:46:05;;;;;;;0.60;0.20;;;;;;;;;;5041788;28;20073;-87
2024/01/02 06:48:33;;;;;;;0.30;0.30;;;;;;;;;;5044805;28;20564;-86
2024/01/02 06:51:00;;;;;;;0.30;0.30;;;;;;;;;;5046622;28;20545;-87
2024/01/02 06:53:27;;;;;;;0.10;0.10;;;;;;;;;;5044623;28;20103;-87
2024/01/02 06:55:54;;;;;;;0.20;0.20;;;;;;;;;;5033048;28;20076;-86
2024/01/02 06:58:22;;;;;;;0.40;0.17;;;;;;;;;;5046835;28;20048;-87
2024/01/02 07:00:50;;;;;;;0.20;0.20;;;;;;;;;;5043388;28;20053;-87
2024/01/02 07:03:18;;;;;;;0.20;0.20;;;;;;;;;;5042747;28;20049;-86
2024/01/02 07:05:46;;;;;;;0.20;0.20;;;;;;;;;;5035177;28;20064;-87
2024/01/02 07:08:13;;;;;;;0.50;0.10;;;;;;;;;;5036092;28;20077;-86
2024/01/02 07:10:40;;;;;;;0.40;0.40;;;;;;;;;;5042474;28;20504;-87
2024/01/02 07:13:07;;;;;;;0.30;0.30;;;;;;;;;;5052843;28;20076;-86
2024/01/02 07:15:35;;;;;;;0.55;0.30;;;;;;;;;;5041370;28;20056;-86
2024/01/02 07:18:02;;;;;;;0.20;0.20;;;;;;;;;;5059033;28;20061;-86
2024/01/02 07:20:29;;;;;;;0.17;0.17;;;;;;;;;;5045276;28;20073;-86
2024/01/02 07:22:56;;;;;;;1.45;0.30;;;;;;;;;;5046296;28;20064;-87
2024/01/02 07:25:24;;;;;;;0.38;0.20;;;;;;;;;;5045589;28;20502;-87
2024/01/02 07:27:51;;;;;;;0.75;0.75;;;;;;;;;;5055062;28;20108;-87
2024/01/02 07:30:18;;;;;;;2.83;0.20;;;;;;;;;;5038602;28;20049;-87
2024/01/02 07:32:45;;;;;;;0.50;0.50;;;;;;;;;;5046017;28;20049;-86
2024/01/02 07:35:14;;;;;;;7.10;5.07;;;;;;;;;;5046119;28;20549;-87
2024/01/02 07:37:41;;;;;;;1.20;0.88;;;;;;;;;;5040395;28;20107;-87
2024/01/02 07:40:09;;;;;;;2.60;1.75;;;;;;;;;;5035775;28;20277;-87
2024/01/02 07:42:36;;;;;;;1.63;1.52;;;;;;;;;;5041623;28;20053;-87
2024/01/02 07:45:04;;;;;;;0.28;0.28;;;;;;;;;;5033938;28;20054;-86
2024/01/02 07:47:32;;;;;;;1.25;0.20;;;;;;;;;;5044325;28;20502;-87
2024/01/02 07:49:59;;;;;;;2.55;0.20;;;;;;;;;;5053915;28;20046;-87
2024/01/02 07:52:26;;;;;;;0.10;0.10;;;;;;;;;;5039952;28;20069;-86
2024/01/02 07:54:54;;;;;;;0.15;0.15;;;;;;;;;;5058909;28;20053;-88
2024/01/02 07:57:21;;;;;;;1.65;0.20;;;;;;;;;;5058718;28;20069;-88
2024/01/02 07:59:48;;;;;;;0.10;0.10;;;;;;;;;;5045544;28;20076;-88
2024/01/02 08:02:16;;;;;;;0.10;0.10;;;;;;;;;;5045736;28;20055;-88
2024/01/02 08:04:43;;;;;;;1.10;0.30;;;;;;;;;;5042531;28;20058;-87
2024/01/02 08:07:10;;;;;;;0.10;0.10;;;;;;;;;;5051871;28;20057;-88
2024/01/02 08:09:38;;;;;;;0.55;0.10;;;;;;;;;;5041103;28;20045;-87
2024/01/02 08:12:05;;;;;;;0.10;0.10;;;;;;;;;;5058530;28;20049;-88
2024/01/02 08:14:32;;;;;;;0.10;0.10;;;;;;;;;;5059902;28;20457;-87
2024/01/02 08:17:00;;;;;;;0.93;0.40;;;;;;;;;;5045512;28;20049;-89
2024/01/02 08:19:27;;;;;;;0.60;0.20;;;;;;;;;;5043974;28;20057;-87
2024/01/02 08:21:54;;;;;;;0.20;0.20;;;;;;;;;;5058559;28;20093;-87
2024/01/02 08:24:22;;;;;;;0.22;0.22;;;;;;;;;;5056926;28;20119;-87
2024/01/02 08:26:49;;;;;;;0.10;0.10;;;;;;;;;;5041030;28;20060;-87
2024/01/02 08:29:16;;;;;;;0.10;0.10;;;;;;;;;;5032933;28;20078;-88
2024/01/02 08:31:43;;;;;;;1.05;0.17;;;;;;;;;;5042119;28;20057;-88
2024/01/02 08:34:10;;;;;;;0.10;0.10;;;;;;;;;;5057787;28;20057;-87
2024/01/02 08:36:38;;;;;;;0.13;0.13;;;;;;;;;;5060347;28;20045;-88
2024/01/02 08:39:05;;;;;;;0.28;0.28;;;;;;;;;;5044766;28;20115;-89
2024/01/02 08:41:32;;;;;;;0.30;0.20;;;;;;;;;;5043309;28;20130;-89
2024/01/02 08:44:00;;;;;;;0.20;0.20;;;;;;;;;;5041493;28;20056;-88
2024/01/02 08:46:27;;;;;;;0.20;0.20;;;;;;;;;;5049669;28;20049;-92
2024/01/02 08:48:54;;;;;;;0.20;0.20;;;;;;;;;;5057742;28;20119;-88
2024/01/02 08:51:22;;;;;;;0.22;0.22;;;;;;;;;;5058000;28;20049;-89
2024/01/02 08:53:50;;;;;;;0.65;0.20;;;;;;;;;;5044164;28;20079;-87
2024/01/02 08:56:17;;;;;;;0.80;0.20;;;;;;;;;;5044450;28;20111;-87
2024/01/02 08:58:46;;;;;;;0.10;0.10;;;;;;;;;;5034213;28;20425;-86
2024/01/02 09:01:15;;;;;;;0.10;0.10;;;;;;;;;;5057722;28;20049;-88
2024/01/02 09:03:42;;;;;;;0.10;0.10;;;;;;;;;;5061458;28;20076;-88
2024/01/02 09:06:10;;;;;;;0.10;0.10;;;;;;;;;;5044421;28;20048;-88
2024/01/02 09:08:37;;;;;;;0.10;0.10;;;;;;;;;;5025589;28;20054;-88
2024/01/02 09:11:05;;;;;;;0.30;0.30;;;;;;;;;;5057547;28;20076;-89
2024/01/02 09:13:32;;;;;;;0.15;0.10;;;;;;;;;;5055869;28;20053;-90
2024/01/02 09:15:59;;;;;;;0.10;0.10;;;;;;;;;;5031952;28;20045;-89
2024/01/02 09:18:26;;;;;;;0.80;0.45;;;;;;;;;;5042914;28;20060;-88
2024/01/02 09:20:54;;;;;;;0.10;0.10;;;;;;;;;;5057499;28;20137;-89
2024/01/02 09:23:21;;;;;;;2.72;0.45;;;;;;;;;;5057427;28;20199;-87
2024/01/02 09:25:51;;;;;;;0.20;0.20;;;;;;;;;;5044291;28;20068;-87
2024/01/02 09:28:19;;;;;;;0.20;0.20;;;;;;;;;;5044064;28;20135;-88
2024/01/02 09:30:47;;;;;;;0.80;0.80;;;;;;;;;;5033019;28;20111;-89
2024/01/02 09:33:15;;;;;;;0.30;0.30;;;;;;;;;;5056651;28;20061;-88
2024/01/02 09:35:42;;;;;;;0.10;0.10;;;;;;;;;;5057167;28;20051;-88
2024/01/02 09:38:11;;;;;;;0.20;0.20;;;;;;;;;;5057450;28;20053;-90
2024/01/02 09:41:06;;;;;;;0.30;0.30;;;;;;;;;;5055970;28;20073;-89
2024/01/02 09:43:42;;;;;;;0.00;0.00;;;;;;;;;;5043136;28;20073;-88
2024/01/02 09:46:18;;;;;;;2.17;2.08;;;;;;;;;;5046182;28;20075;-89
2024/01/02 09:48:54;;;;;;;0.10;0.10;;;;;;;;;;5028200;28;20473;-88
2024/01/02 09:51:42;;;;;;;0.30;0.30;;;;;;;;;;5060021;28;20095;-87
2024/01/02 09:54:18;;;;;;;0.57;0.22;;;;;;;;;;5044831;28;20131;-87
2024/01/02 09:56:50;;;;;;;0.10;0.10;;;;;;;;;;5040736;28;20053;-89
2024/01/02 09:59:32;;;;;;;1.38;0.20;;;;;;;;;;5048563;28;20136;-88
2024/01/02 10:01:59;;;;;;;0.63;0.30;;;;;;;;;;5034429;28;20053;-90
2024/01/02 10:04:42;;;;;;;0.73;0.63;;;;;;;;;;5040754;28;20088;-89
2024/01/02 10:07:19;;;;;;;0.20;0.20;;;;;;;;;;5044114;28;20099;-87
2024/01/02 10:10:03;;;;;;;1.55;0.20;;;;;;;;;;5032249;28;20494;-89
2024/01/02 10:12:51;;;;;;;0.45;0.28;;;;;;;;;;5058307;28;20053;-88
2024/01/02 10:15:29;;;;;;;0.10;0.10;;;;;;;;;;5043662;28;20501;-89
2024/01/02 10:18:23;;;;;;;0.10;0.10;;;;;;;;;;5034897;28;20081;-87
2024/01/02 10:21:08;;;;;;;0.10;0.10;;;;;;;;;;5038465;28;20076;-89
2024/01/02 10:23:43;;;;;;;0.10;0.10;;;;;;;;;;5041919;28;20076;-89
2024/01/02 10:26:12;;;;;;;0.10;0.10;;;;;;;;;;5028656;28;20045;-87
2024/01/02 10:28:40;;;;;;;0.20;0.20;;;;;;;;;;5042631;28;20498;-89
2024/01/02 10:31:13;;;;;;;0.63;0.32;;;;;;;;;;5043874;28;20041;-89
2024/01/02 10:33:45;;;;;;;1.55;0.10;;;;;;;;;;5026986;28;20046;-90
2024/01/02 10:36:15;;;;;;;0.10;0.00;;;;;;;;;;5043634;28;20065;-89
2024/01/02 10:38:49;;;;;;;0.08;0.08;;;;;;;;;;5040742;28;20061;-89
2024/01/02 10:41:16;;;;;;;;;;;;;;;;;;5057043;28;20091;-88
2024/01/02 10:43:50;;;;;;;0.10;0.10;;;;;;;;;;5043099;28;20011;-89
2024/01/02 10:46:18;;;;;;;0.25;0.20;;;;;;;;;;5035854;28;20103;-90
2024/01/02 10:48:48;;;;;;;0.00;0.00;;;;;;;;;;5047400;28;20079;-87
2024/01/02 10:51:23;;;;;;;0.20;0.20;;;;;;;;;;5032432;28;20502;-90
2024/01/02 10:54:06;;;;;;;0.15;0.15;;;;;;;;;;5036325;28;20220;-90
2024/01/02 10:56:43;;;;;;;0.10;0.10;;;;;;;;;;5060454;28;20500;-90
2024/01/02 10:59:22;;;;;;;0.30;0.28;;;;;;;;;;5060235;28;20482;-89
2024/01/02 11:01:49;;;;;;;0.40;0.40;;;;;;;;;;5036121;28;20460;-89
2024/01/02 11:04:36;;;;;;;0.17;0.17;;;;;;;;;;5059646;28;20051;-89
2024/01/02 11:07:07;;;;;;;0.20;0.20;;;;;;;;;;5037558;28;20049;-90
2024/01/02 11:09:39;;;;;;;0.10;0.10;;;;;;;;;;5061893;28;20045;-89
2024/01/02 11:12:09;;;;;;;0.10;0.10;;;;;;;;;;5046920;28;20053;-89
2024/01/02 11:14:43;;;;;;;0.10;0.10;;;;;;;;;;5038616;28;20480;-89
2024/01/02 11:17:13;;;;;;;0.10;0.10;;;;;;;;;;5046911;28;20044;-90
2024/01/02 11:19:44;;;;;;;1.65;0.17;;;;;;;;;;5042917;28;20056;-90
2024/01/02 11:22:15;;;;;;;0.30;0.20;;;;;;;;;;5059848;28;20061;-88
2024/01/02 11:24:51;;;;;;;0.00;0.00;;;;;;;;;;5062571;28;20468;-89
2024/01/02 11:27:21;;;;;;;0.10;0.10;;;;;;;;;;5046923;28;20481;-89
2024/01/02 11:29:49;;;;;;;0.10;0.10;;;;;;;;;;5043059;28;20080;-90
2024/01/02 11:32:18;;;;;;;0.20;0.20;;;;;;;;;;5068096;28;20065;-89
2024/01/02 11:35:00;;;;;;;0.43;0.20;;;;;;;;;;5064297;28;20087;-89
2024/01/02 11:37:37;;;;;;;0.20;0.10;;;;;;;;;;5045455;28;20052;-89
2024/01/02 11:40:14;;;;;;;0.10;0.10;;;;;;;;;;5059440;28;20045;-85
2024/01/02 11:42:51;;;;;;;0.10;0.10;;;;;;;;;;5062232;28;20096;-88
2024/01/02 11:45:20;;;;;;;0.10;0.10;;;;;;;;;;5046499;28;20044;-90
2024/01/02 11:48:07;;;;;;;0.40;0.10;;;;;;;;;;5032343;28;20058;-89
2024/01/02 11:50:43;;;;;;;0.10;0.10;;;;;;;;;;5025075;28;20505;-88
2024/01/02 11:53:19;;;;;;;0.10;0.10;;;;;;;;;;5042532;28;20049;-89
2024/01/02 11:55:52;;;;;;;0.10;0.10;;;;;;;;;;5051613;28;20506;-90
2024/01/02 11:58:27;;;;;;;0.10;0.10;;;;;;;;;;5042588;28;20482;-88
2024/01/02 12:01:07;;;;;;;0.10;0.10;;;;;;;;;;5036725;28;20057;-87
2024/01/02 12:03:53;;;;;;;0.10;0.10;;;;;;;;;;5044176;28;20041;-88
2024/01/02 12:06:35;;;;;;;0.20;0.20;;;;;;;;;;5045733;28;20077;-89
2024/01/02 12:09:05;;;;;;;0.10;0.10;;;;;;;;;;5036582;28;20107;-88
2024/01/02 12:11:35;;;;;;;0.05;0.05;;;;;;;;;;5060055;28;20060;-88
2024/01/02 12:14:02;;;;;;;0.20;0.20;;;;;;;;;;5034122;28;20050;-90
2024/01/02 12:16:33;;;;;;;1.15;0.20;;;;;;;;;;5039909;28;20068;-88
2024/01/02 12:19:03;;;;;;;0.10;0.10;;;;;;;;;;5058050;28;20058;-90
2024/01/02 12:21:32;;;;;;;0.25;0.25;;;;;;;;;;5060117;28;20081;-88
2024/01/02 12:24:01;;;;;;;0.15;0.15;;;;;;;;;;5045352;28;20485;-89
2024/01/02 12:26:31;;;;;;;0.63;0.63;;;;;;;;;;5045405;28;20049;-88
2024/01/02 12:28:59;;;;;;;0.08;0.08;;;;;;;;;;5045462;28;20045;-87
2024/01/02 12:31:30;;;;;;;0.10;0.10;;;;;;;;;;5044406;28;20144;-86
2024/01/02 12:34:00;;;;;;;0.10;0.10;;;;;;;;;;5058145;28;20046;-87
2024/01/02 12:36:44;;;;;;;0.10;0.10;;;;;;;;;;5059025;28;20616;-88
2024/01/02 12:39:16;;;;;;;0.40;0.10;;;;;;;;;;5045363;28;20060;-89
2024/01/02 12:41:51;;;;;;;0.00;0.00;;;;;;;;;;5042144;28;20486;-87
2024/01/02 12:44:23;;;;;;;0.10;0.10;;;;;;;;;;5025925;28;20104;-88
2024/01/02 12:46:58;;;;;;;0.10;0.10;;;;;;;;;;5036380;28;20049;-86
2024/01/02 12:49:29;;;;;;;0.10;0.10;;;;;;;;;;5056325;28;20530;-88
2024/01/02 12:52:02;;;;;;;1.05;0.40;;;;;;;;;;5045117;28;20064;-86
2024/01/02 12:54:30;;;;;;;0.10;0.10;;;;;;;;;;5043621;28;20114;-87
2024/01/02 12:57:04;;;;;;;0.20;0.20;;;;;;;;;;5057741;28;20049;-86
2024/01/02 12:59:33;;;;;;;0.10;0.10;;;;;;;;;;5058816;28;20057;-85
2024/01/02 13:02:07;;;;;;;0.10;0.10;;;;;;;;;;5044541;28;20056;-86
2024/01/02 13:04:37;;;;;;;0.10;0.10;;;;;;;;;;5042718;28;20049;-86
2024/01/02 13:07:07;;;;;;;0.00;0.00;;;;;;;;;;5057526;28;20045;-86
2024/01/02 13:09:37;;;;;;;0.15;0.08;;;;;;;;;;5031903;28;20057;-87
2024/01/02 13:12:07;;;;;;;0.10;0.00;;;;;;;;;;5057212;28;20065;-87
2024/01/02 13:14:35;;;;;;;0.08;0.08;;;;;;;;;;5059056;28;20053;-86
2024/01/02 13:17:04;;;;;;;0.10;0.10;;;;;;;;;;5044359;28;20053;-86
2024/01/02 13:19:32;;;;;;;0.10;0.10;;;;;;;;;;5042438;28;20398;-87
2024/01/02 13:22:00;;;;;;;0.52;0.10;;;;;;;;;;5057279;28;20133;-87
2024/01/02 13:24:43;;;;;;;0.13;0.10;;;;;;;;;;5057690;28;20080;-87
2024/01/02 13:27:13;;;;;;;0.20;0.20;;;;;;;;;;5037392;28;20042;-86
2024/01/02 13:29:45;;;;;;;0.17;0.17;;;;;;;;;;5043011;28;20498;-87
2024/01/02 13:32:13;;;;;;;0.80;0.10;;;;;;;;;;5044014;28;20055;-87
2024/01/02 13:34:42;;;;;;;0.17;0.17;;;;;;;;;;5040885;28;20128;-87
2024/01/02 13:37:23;;;;;;;0.10;0.10;;;;;;;;;;5056703;28;20049;-87
2024/01/02 13:39:50;;;;;;;0.10;0.10;;;;;;;;;;5053260;28;20469;-87
2024/01/02 13:42:29;;;;;;;0.10;0.10;;;;;;;;;;5035931;28;20052;-87
2024/01/02 13:44:57;;;;;;;0.32;0.10;;;;;;;;;;5030419;28;20049;-88
2024/01/02 13:47:34;;;;;;;0.32;0.32;;;;;;;;;;5043549;28;20088;-86
2024/01/02 13:50:04;;;;;;;0.30;0.30;;;;;;;;;;5056854;28;20080;-86
2024/01/02 13:52:32;;;;;;;0.10;0.10;;;;;;;;;;5058496;28;20077;-86
2024/01/02 13:54:59;;;;;;;0.10;0.10;;;;;;;;;;5038503;28;20077;-87
2024/01/02 13:57:27;;;;;;;0.08;0.08;;;;;;;;;;5041084;28;20049;-87
2024/01/02 13:59:54;;;;;;;0.10;0.10;;;;;;;;;;5040412;28;20045;-87
2024/01/02 14:02:27;;;;;;;0.00;0.00;;;;;;;;;;5040602;28;20077;-88
2024/01/02 14:05:03;;;;;;;0.22;0.22;;;;;;;;;;5060121;28;20124;-87
2024/01/02 14:07:31;;;;;;;0.10;0.10;;;;;;;;;;5058213;28;20073;-87
2024/01/02 14:10:00;;;;;;;0.20;0.20;;;;;;;;;;5038356;28;20080;-87
2024/01/02 14:12:43;;;;;;;0.10;0.10;;;;;;;;;;5040706;28;20088;-87
2024/01/02 14:15:22;;;;;;;1.23;0.13;;;;;;;;;;5043604;28;20064;-88
2024/01/02 14:18:09;;;;;;;0.10;0.10;;;;;;;;;;5046751;28;20158;-87
2024/01/02 14:20:42;;;;;;;0.20;0.20;;;;;;;;;;5041702;28;20050;-88
2024/01/02 14:23:23;;;;;;;0.10;0.10;;;;;;;;;;5045488;28;20095;-87
2024/01/02 14:26:06;;;;;;;0.10;0.10;;;;;;;;;;5035127;28;20042;-88
2024/01/02 14:28:43;;;;;;;0.40;0.32;;;;;;;;;;5062266;28;20080;-86
2024/01/02 14:31:39;;;;;;;0.30;0.30;;;;;;;;;;5047085;28;20053;-87
2024/01/02 14:34:24;;;;;;;0.17;0.17;;;;;;;;;;4997677;28;20100;-87
2024/01/02 14:37:07;;;;;;;0.30;0.30;;;;;;;;;;5036681;28;20472;-87
2024/01/02 14:39:54;;;;;;;0.10;0.10;;;;;;;;;;5052050;28;20547;-87
2024/01/02 14:42:35;;;;;;;1.55;0.20;;;;;;;;;;5060159;28;20557;-87
2024/01/02 14:45:25;;;;;;;0.20;0.20;;;;;;;;;;5060322;28;20045;-88
2024/01/02 14:47:58;;;;;;;0.10;0.10;;;;;;;;;;5036154;28;20095;-87
2024/01/02 14:50:49;;;;;;;0.38;0.38;;;;;;;;;;5060481;28;20140;-87
2024/01/02 14:53:49;;;;;;;0.00;0.00;;;;;;;;;;5034944;28;20061;-87
2024/01/02 14:56:43;;;;;;;1.65;0.10;;;;;;;;;;5014777;28;20068;-87
2024/01/02 14:59:17;;;;;;;0.08;0.08;;;;;;;;;;5043566;28;20049;-87